sensor_id;sensor_type;location;lat;lon;timestamp;P1;durP1;ratioP1;P2;durP2;ratioP2
64335;SDS011;50672;53.362;-6.240;2022-12-10T00:01:29;13.07;;;7.93;;
64335;SDS011;50672;53.362;-6.240;2022-12-10T00:03:56;15.27;;;7.80;;
64335;SDS011;50672;53.362;-6.240;2022-12-10T00:06:24;13.07;;;8.35;;
64335;SDS011;50672;53.362;-6.240;2022-12-10T00:08:51;14.95;;;7.57;;
64335;SDS011;50672;53.362;-6.240;2022-12-10T00:11:18;16.10;;;8.40;;
64335;SDS011;50672;53.362;-6.240;2022-12-10T00:13:46;15.32;;;7.68;;
64335;SDS011;50672;53.362;-6.240;2022-12-10T00:16:14;19.20;;;8.98;;
64335;SDS011;50672;53.362;-6.240;2022-12-10T00:18:41;15.95;;;7.63;;
64335;SDS011;50672;53.362;-6.240;2022-12-10T00:21:09;13.88;;;7.70;;
64335;SDS011;50672;53.362;-6.240;2022-12-10T00:23:36;12.23;;;7.32;;
64335;SDS011;50672;53.362;-6.240;2022-12-10T00:26:07;14.20;;;7.50;;
64335;SDS011;50672;53.362;-6.240;2022-12-10T00:28:34;16.23;;;7.22;;
64335;SDS011;50672;53.362;-6.240;2022-12-10T00:31:02;12.75;;;6.90;;
64335;SDS011;50672;53.362;-6.240;2022-12-10T00:33:29;13.82;;;7.15;;
64335;SDS011;50672;53.362;-6.240;2022-12-10T00:35:56;11.82;;;6.55;;
64335;SDS011;50672;53.362;-6.240;2022-12-10T00:38:22;14.77;;;7.20;;
64335;SDS011;50672;53.362;-6.240;2022-12-10T00:40:49;12.95;;;7.20;;
64335;SDS011;50672;53.362;-6.240;2022-12-10T00:43:15;15.18;;;7.40;;
64335;SDS011;50672;53.362;-6.240;2022-12-10T00:45:42;12.27;;;7.18;;
64335;SDS011;50672;53.362;-6.240;2022-12-10T00:48:08;16.13;;;6.55;;
64335;SDS011;50672;53.362;-6.240;2022-12-10T00:50:35;11.45;;;5.93;;
64335;SDS011;50672;53.362;-6.240;2022-12-10T00:53:02;12.43;;;5.90;;
64335;SDS011;50672;53.362;-6.240;2022-12-10T00:55:28;11.90;;;6.43;;
64335;SDS011;50672;53.362;-6.240;2022-12-10T00:57:55;13.40;;;6.25;;
64335;SDS011;50672;53.362;-6.240;2022-12-10T01:00:21;10.63;;;5.82;;
64335;SDS011;50672;53.362;-6.240;2022-12-10T01:02:48;12.00;;;6.45;;
64335;SDS011;50672;53.362;-6.240;2022-12-10T01:05:14;14.35;;;6.45;;
64335;SDS011;50672;53.362;-6.240;2022-12-10T01:07:41;12.10;;;6.13;;
64335;SDS011;50672;53.362;-6.240;2022-12-10T01:10:08;11.80;;;7.05;;
64335;SDS011;50672;53.362;-6.240;2022-12-10T01:12:35;12.82;;;6.78;;
64335;SDS011;50672;53.362;-6.240;2022-12-10T01:15:01;13.95;;;7.32;;
64335;SDS011;50672;53.362;-6.240;2022-12-10T01:17:28;10.95;;;6.35;;
64335;SDS011;50672;53.362;-6.240;2022-12-10T01:19:55;12.02;;;6.43;;
64335;SDS011;50672;53.362;-6.240;2022-12-10T01:22:21;14.88;;;7.47;;
64335;SDS011;50672;53.362;-6.240;2022-12-10T01:24:48;15.65;;;7.88;;
64335;SDS011;50672;53.362;-6.240;2022-12-10T01:27:14;15.75;;;8.32;;
64335;SDS011;50672;53.362;-6.240;2022-12-10T01:29:41;13.35;;;6.70;;
64335;SDS011;50672;53.362;-6.240;2022-12-10T01:32:08;12.90;;;6.20;;
64335;SDS011;50672;53.362;-6.240;2022-12-10T01:34:34;14.57;;;7.53;;
64335;SDS011;50672;53.362;-6.240;2022-12-10T01:37:01;13.75;;;7.07;;
64335;SDS011;50672;53.362;-6.240;2022-12-10T01:39:27;15.38;;;7.38;;
64335;SDS011;50672;53.362;-6.240;2022-12-10T01:41:55;13.40;;;7.30;;
64335;SDS011;50672;53.362;-6.240;2022-12-10T01:45:03;14.18;;;6.88;;
64335;SDS011;50672;53.362;-6.240;2022-12-10T01:48:07;13.48;;;7.70;;
64335;SDS011;50672;53.362;-6.240;2022-12-10T01:51:14;13.10;;;7.95;;
64335;SDS011;50672;53.362;-6.240;2022-12-10T01:53:41;13.45;;;8.43;;
64335;SDS011;50672;53.362;-6.240;2022-12-10T01:56:09;12.23;;;7.65;;
64335;SDS011;50672;53.362;-6.240;2022-12-10T01:58:36;13.77;;;7.63;;
64335;SDS011;50672;53.362;-6.240;2022-12-10T02:08:44;14.27;;;7.35;;
64335;SDS011;50672;53.362;-6.240;2022-12-10T02:11:23;14.63;;;8.40;;
64335;SDS011;50672;53.362;-6.240;2022-12-10T02:14:02;16.83;;;8.55;;
64335;SDS011;50672;53.362;-6.240;2022-12-10T02:16:34;16.23;;;7.85;;
64335;SDS011;50672;53.362;-6.240;2022-12-10T02:21:33;17.15;;;8.55;;
64335;SDS011;50672;53.362;-6.240;2022-12-10T02:24:02;14.57;;;8.75;;
64335;SDS011;50672;53.362;-6.240;2022-12-10T02:26:31;20.30;;;8.98;;
64335;SDS011;50672;53.362;-6.240;2022-12-10T02:31:34;15.35;;;8.30;;
64335;SDS011;50672;53.362;-6.240;2022-12-10T02:34:02;15.43;;;8.57;;
64335;SDS011;50672;53.362;-6.240;2022-12-10T02:36:31;16.45;;;7.53;;
64335;SDS011;50672;53.362;-6.240;2022-12-10T02:38:59;15.57;;;8.30;;
64335;SDS011;50672;53.362;-6.240;2022-12-10T02:41:36;14.00;;;7.65;;
64335;SDS011;50672;53.362;-6.240;2022-12-10T02:44:05;12.10;;;6.10;;
64335;SDS011;50672;53.362;-6.240;2022-12-10T02:46:33;15.35;;;7.40;;
64335;SDS011;50672;53.362;-6.240;2022-12-10T02:49:01;13.27;;;7.20;;
64335;SDS011;50672;53.362;-6.240;2022-12-10T02:51:28;15.20;;;7.22;;
64335;SDS011;50672;53.362;-6.240;2022-12-10T02:54:04;12.40;;;6.35;;
64335;SDS011;50672;53.362;-6.240;2022-12-10T02:56:36;15.38;;;7.55;;
64335;SDS011;50672;53.362;-6.240;2022-12-10T02:59:14;12.82;;;6.40;;
64335;SDS011;50672;53.362;-6.240;2022-12-10T03:01:55;13.73;;;7.20;;
64335;SDS011;50672;53.362;-6.240;2022-12-10T03:04:28;12.45;;;7.32;;
64335;SDS011;50672;53.362;-6.240;2022-12-10T03:07:01;15.25;;;7.93;;
64335;SDS011;50672;53.362;-6.240;2022-12-10T03:09:30;14.05;;;7.00;;
64335;SDS011;50672;53.362;-6.240;2022-12-10T03:11:59;18.23;;;9.25;;
64335;SDS011;50672;53.362;-6.240;2022-12-10T03:14:29;14.02;;;7.72;;
64335;SDS011;50672;53.362;-6.240;2022-12-10T03:16:56;14.35;;;7.50;;
64335;SDS011;50672;53.362;-6.240;2022-12-10T03:19:33;13.65;;;7.57;;
64335;SDS011;50672;53.362;-6.240;2022-12-10T03:22:02;13.65;;;7.93;;
64335;SDS011;50672;53.362;-6.240;2022-12-10T03:24:30;15.25;;;8.27;;
64335;SDS011;50672;53.362;-6.240;2022-12-10T03:26:57;15.45;;;8.48;;
64335;SDS011;50672;53.362;-6.240;2022-12-10T03:29:29;16.88;;;8.02;;
64335;SDS011;50672;53.362;-6.240;2022-12-10T03:31:58;14.13;;;7.13;;
64335;SDS011;50672;53.362;-6.240;2022-12-10T03:34:24;16.67;;;7.78;;
64335;SDS011;50672;53.362;-6.240;2022-12-10T03:36:51;15.93;;;8.00;;
64335;SDS011;50672;53.362;-6.240;2022-12-10T03:39:19;17.58;;;8.30;;
64335;SDS011;50672;53.362;-6.240;2022-12-10T03:41:45;12.20;;;6.85;;
64335;SDS011;50672;53.362;-6.240;2022-12-10T03:44:12;15.77;;;8.30;;
64335;SDS011;50672;53.362;-6.240;2022-12-10T03:46:39;14.52;;;7.28;;
64335;SDS011;50672;53.362;-6.240;2022-12-10T03:49:06;13.07;;;7.68;;
64335;SDS011;50672;53.362;-6.240;2022-12-10T03:51:32;17.10;;;8.23;;
64335;SDS011;50672;53.362;-6.240;2022-12-10T03:53:59;13.80;;;7.47;;
64335;SDS011;50672;53.362;-6.240;2022-12-10T03:56:26;15.95;;;7.43;;
64335;SDS011;50672;53.362;-6.240;2022-12-10T03:58:52;16.52;;;8.32;;
64335;SDS011;50672;53.362;-6.240;2022-12-10T04:01:19;16.30;;;8.30;;
64335;SDS011;50672;53.362;-6.240;2022-12-10T04:03:46;19.45;;;8.65;;
64335;SDS011;50672;53.362;-6.240;2022-12-10T04:06:17;16.40;;;9.02;;
64335;SDS011;50672;53.362;-6.240;2022-12-10T04:08:44;15.00;;;7.68;;
64335;SDS011;50672;53.362;-6.240;2022-12-10T04:11:12;14.30;;;7.88;;
64335;SDS011;50672;53.362;-6.240;2022-12-10T04:13:38;16.33;;;8.50;;
64335;SDS011;50672;53.362;-6.240;2022-12-10T04:16:24;15.38;;;7.75;;
64335;SDS011;50672;53.362;-6.240;2022-12-10T04:18:54;17.35;;;8.82;;
64335;SDS011;50672;53.362;-6.240;2022-12-10T04:21:26;15.10;;;7.72;;
64335;SDS011;50672;53.362;-6.240;2022-12-10T04:24:12;15.60;;;8.55;;
64335;SDS011;50672;53.362;-6.240;2022-12-10T04:26:58;13.95;;;8.00;;
64335;SDS011;50672;53.362;-6.240;2022-12-10T04:29:26;16.30;;;8.23;;
64335;SDS011;50672;53.362;-6.240;2022-12-10T04:31:53;17.23;;;9.38;;
64335;SDS011;50672;53.362;-6.240;2022-12-10T04:34:20;14.68;;;8.50;;
64335;SDS011;50672;53.362;-6.240;2022-12-10T04:36:47;14.57;;;8.27;;
64335;SDS011;50672;53.362;-6.240;2022-12-10T04:39:14;18.23;;;9.02;;
64335;SDS011;50672;53.362;-6.240;2022-12-10T04:41:41;15.80;;;8.95;;
64335;SDS011;50672;53.362;-6.240;2022-12-10T04:44:08;16.98;;;8.65;;
64335;SDS011;50672;53.362;-6.240;2022-12-10T04:46:35;15.27;;;8.57;;
64335;SDS011;50672;53.362;-6.240;2022-12-10T04:49:02;17.90;;;9.27;;
64335;SDS011;50672;53.362;-6.240;2022-12-10T04:51:29;18.67;;;9.10;;
64335;SDS011;50672;53.362;-6.240;2022-12-10T04:53:56;16.30;;;9.88;;
64335;SDS011;50672;53.362;-6.240;2022-12-10T04:56:23;16.55;;;8.30;;
64335;SDS011;50672;53.362;-6.240;2022-12-10T04:58:49;17.40;;;8.30;;
64335;SDS011;50672;53.362;-6.240;2022-12-10T05:01:16;14.82;;;7.95;;
64335;SDS011;50672;53.362;-6.240;2022-12-10T05:03:44;14.95;;;8.10;;
64335;SDS011;50672;53.362;-6.240;2022-12-10T05:06:11;18.30;;;8.55;;
64335;SDS011;50672;53.362;-6.240;2022-12-10T05:08:38;16.42;;;7.78;;
64335;SDS011;50672;53.362;-6.240;2022-12-10T05:11:06;14.50;;;8.32;;
64335;SDS011;50672;53.362;-6.240;2022-12-10T05:13:33;14.27;;;8.00;;
64335;SDS011;50672;53.362;-6.240;2022-12-10T05:16:03;15.55;;;8.20;;
64335;SDS011;50672;53.362;-6.240;2022-12-10T05:18:30;15.45;;;8.20;;
64335;SDS011;50672;53.362;-6.240;2022-12-10T05:21:04;13.27;;;7.70;;
64335;SDS011;50672;53.362;-6.240;2022-12-10T05:23:31;12.98;;;7.55;;
64335;SDS011;50672;53.362;-6.240;2022-12-10T05:28:24;13.00;;;6.65;;
64335;SDS011;50672;53.362;-6.240;2022-12-10T05:30:51;14.55;;;7.25;;
64335;SDS011;50672;53.362;-6.240;2022-12-10T05:33:18;13.68;;;7.40;;
64335;SDS011;50672;53.362;-6.240;2022-12-10T05:35:51;13.40;;;7.03;;
64335;SDS011;50672;53.362;-6.240;2022-12-10T05:38:18;14.13;;;7.80;;
64335;SDS011;50672;53.362;-6.240;2022-12-10T05:40:45;16.38;;;8.18;;
64335;SDS011;50672;53.362;-6.240;2022-12-10T05:43:11;18.60;;;8.27;;
64335;SDS011;50672;53.362;-6.240;2022-12-10T05:45:38;15.00;;;7.95;;
64335;SDS011;50672;53.362;-6.240;2022-12-10T05:48:05;15.20;;;7.75;;
64335;SDS011;50672;53.362;-6.240;2022-12-10T05:50:32;18.42;;;8.85;;
64335;SDS011;50672;53.362;-6.240;2022-12-10T05:53:00;14.95;;;8.20;;
64335;SDS011;50672;53.362;-6.240;2022-12-10T05:55:27;15.02;;;8.38;;
64335;SDS011;50672;53.362;-6.240;2022-12-10T05:57:55;20.05;;;8.65;;
64335;SDS011;50672;53.362;-6.240;2022-12-10T06:00:21;16.95;;;8.82;;
64335;SDS011;50672;53.362;-6.240;2022-12-10T06:02:50;21.15;;;9.10;;
64335;SDS011;50672;53.362;-6.240;2022-12-10T06:05:16;18.25;;;9.35;;
64335;SDS011;50672;53.362;-6.240;2022-12-10T06:07:43;18.30;;;8.48;;
64335;SDS011;50672;53.362;-6.240;2022-12-10T06:10:10;16.50;;;8.82;;
64335;SDS011;50672;53.362;-6.240;2022-12-10T06:12:37;15.73;;;8.20;;
64335;SDS011;50672;53.362;-6.240;2022-12-10T06:15:04;16.10;;;7.68;;
64335;SDS011;50672;53.362;-6.240;2022-12-10T06:17:31;15.90;;;8.32;;
64335;SDS011;50672;53.362;-6.240;2022-12-10T06:19:57;15.38;;;8.93;;
64335;SDS011;50672;53.362;-6.240;2022-12-10T06:22:24;16.15;;;8.40;;
64335;SDS011;50672;53.362;-6.240;2022-12-10T06:24:51;15.75;;;7.65;;
64335;SDS011;50672;53.362;-6.240;2022-12-10T06:27:17;15.35;;;7.50;;
64335;SDS011;50672;53.362;-6.240;2022-12-10T06:29:44;15.93;;;6.88;;
64335;SDS011;50672;53.362;-6.240;2022-12-10T06:32:10;14.77;;;7.82;;
64335;SDS011;50672;53.362;-6.240;2022-12-10T06:34:37;11.35;;;7.00;;
64335;SDS011;50672;53.362;-6.240;2022-12-10T06:37:08;14.93;;;7.45;;
64335;SDS011;50672;53.362;-6.240;2022-12-10T06:39:35;12.60;;;7.28;;
64335;SDS011;50672;53.362;-6.240;2022-12-10T06:42:01;14.18;;;8.00;;
64335;SDS011;50672;53.362;-6.240;2022-12-10T06:44:28;13.13;;;7.50;;
64335;SDS011;50672;53.362;-6.240;2022-12-10T06:46:54;16.73;;;8.38;;
64335;SDS011;50672;53.362;-6.240;2022-12-10T06:49:21;15.32;;;7.95;;
64335;SDS011;50672;53.362;-6.240;2022-12-10T06:51:47;15.25;;;8.27;;
64335;SDS011;50672;53.362;-6.240;2022-12-10T06:54:14;16.65;;;7.65;;
64335;SDS011;50672;53.362;-6.240;2022-12-10T06:56:40;12.52;;;8.10;;
64335;SDS011;50672;53.362;-6.240;2022-12-10T06:59:07;14.52;;;7.90;;
64335;SDS011;50672;53.362;-6.240;2022-12-10T07:01:34;14.47;;;7.53;;
64335;SDS011;50672;53.362;-6.240;2022-12-10T07:04:00;12.82;;;7.25;;
64335;SDS011;50672;53.362;-6.240;2022-12-10T07:06:27;13.10;;;8.45;;
64335;SDS011;50672;53.362;-6.240;2022-12-10T07:08:56;13.88;;;7.18;;
64335;SDS011;50672;53.362;-6.240;2022-12-10T07:11:24;11.27;;;6.15;;
64335;SDS011;50672;53.362;-6.240;2022-12-10T07:13:51;12.80;;;6.53;;
64335;SDS011;50672;53.362;-6.240;2022-12-10T07:16:19;13.27;;;7.43;;
64335;SDS011;50672;53.362;-6.240;2022-12-10T07:18:47;11.93;;;6.68;;
64335;SDS011;50672;53.362;-6.240;2022-12-10T07:21:19;13.65;;;6.68;;
64335;SDS011;50672;53.362;-6.240;2022-12-10T07:23:46;12.23;;;7.15;;
64335;SDS011;50672;53.362;-6.240;2022-12-10T07:26:13;13.73;;;6.78;;
64335;SDS011;50672;53.362;-6.240;2022-12-10T07:28:39;10.30;;;5.65;;
64335;SDS011;50672;53.362;-6.240;2022-12-10T07:31:18;14.32;;;6.38;;
64335;SDS011;50672;53.362;-6.240;2022-12-10T07:33:44;10.88;;;6.20;;
64335;SDS011;50672;53.362;-6.240;2022-12-10T07:36:11;9.75;;;6.10;;
64335;SDS011;50672;53.362;-6.240;2022-12-10T07:38:38;13.88;;;7.43;;
64335;SDS011;50672;53.362;-6.240;2022-12-10T07:41:06;10.60;;;6.03;;
64335;SDS011;50672;53.362;-6.240;2022-12-10T07:43:34;12.10;;;6.03;;
64335;SDS011;50672;53.362;-6.240;2022-12-10T07:46:05;11.93;;;6.18;;
64335;SDS011;50672;53.362;-6.240;2022-12-10T07:48:33;11.55;;;6.32;;
64335;SDS011;50672;53.362;-6.240;2022-12-10T07:51:00;11.13;;;5.90;;
64335;SDS011;50672;53.362;-6.240;2022-12-10T07:53:26;12.07;;;6.47;;
64335;SDS011;50672;53.362;-6.240;2022-12-10T07:55:53;14.80;;;6.90;;
64335;SDS011;50672;53.362;-6.240;2022-12-10T07:58:20;11.70;;;5.70;;
64335;SDS011;50672;53.362;-6.240;2022-12-10T08:00:46;11.98;;;6.22;;
64335;SDS011;50672;53.362;-6.240;2022-12-10T08:03:13;13.50;;;6.82;;
64335;SDS011;50672;53.362;-6.240;2022-12-10T08:05:40;10.70;;;6.50;;
64335;SDS011;50672;53.362;-6.240;2022-12-10T08:08:06;11.10;;;6.50;;
64335;SDS011;50672;53.362;-6.240;2022-12-10T08:10:37;11.73;;;6.22;;
64335;SDS011;50672;53.362;-6.240;2022-12-10T08:13:04;11.07;;;5.70;;
64335;SDS011;50672;53.362;-6.240;2022-12-10T08:15:31;9.52;;;6.30;;
64335;SDS011;50672;53.362;-6.240;2022-12-10T08:17:58;10.43;;;6.90;;
64335;SDS011;50672;53.362;-6.240;2022-12-10T08:21:05;11.52;;;5.47;;
64335;SDS011;50672;53.362;-6.240;2022-12-10T08:24:11;10.27;;;5.70;;
64335;SDS011;50672;53.362;-6.240;2022-12-10T08:27:17;11.88;;;7.43;;
64335;SDS011;50672;53.362;-6.240;2022-12-10T08:30:24;11.13;;;5.80;;
64335;SDS011;50672;53.362;-6.240;2022-12-10T08:33:47;13.30;;;5.93;;
64335;SDS011;50672;53.362;-6.240;2022-12-10T08:36:54;10.75;;;5.93;;
64335;SDS011;50672;53.362;-6.240;2022-12-10T08:39:20;11.18;;;5.95;;
64335;SDS011;50672;53.362;-6.240;2022-12-10T08:42:27;10.27;;;5.78;;
64335;SDS011;50672;53.362;-6.240;2022-12-10T08:45:34;9.15;;;5.68;;
64335;SDS011;50672;53.362;-6.240;2022-12-10T08:48:40;13.00;;;5.47;;
64335;SDS011;50672;53.362;-6.240;2022-12-10T08:51:46;12.50;;;5.63;;
64335;SDS011;50672;53.362;-6.240;2022-12-10T08:54:55;10.65;;;5.18;;
64335;SDS011;50672;53.362;-6.240;2022-12-10T08:58:02;10.65;;;6.25;;
64335;SDS011;50672;53.362;-6.240;2022-12-10T09:01:34;10.55;;;6.13;;
64335;SDS011;50672;53.362;-6.240;2022-12-10T09:04:41;10.82;;;6.22;;
64335;SDS011;50672;53.362;-6.240;2022-12-10T09:07:47;10.57;;;5.68;;
64335;SDS011;50672;53.362;-6.240;2022-12-10T09:10:54;9.65;;;6.32;;
64335;SDS011;50672;53.362;-6.240;2022-12-10T09:14:26;11.65;;;4.80;;
64335;SDS011;50672;53.362;-6.240;2022-12-10T09:17:34;11.70;;;5.22;;
64335;SDS011;50672;53.362;-6.240;2022-12-10T09:20:39;9.25;;;6.15;;
64335;SDS011;50672;53.362;-6.240;2022-12-10T10:05:57;11.98;;;5.55;;
64335;SDS011;50672;53.362;-6.240;2022-12-10T10:08:28;9.00;;;5.13;;
64335;SDS011;50672;53.362;-6.240;2022-12-10T10:10:55;7.25;;;4.68;;
64335;SDS011;50672;53.362;-6.240;2022-12-10T10:13:34;8.02;;;5.13;;
64335;SDS011;50672;53.362;-6.240;2022-12-10T10:18:56;8.40;;;5.95;;
64335;SDS011;50672;53.362;-6.240;2022-12-10T10:21:28;6.15;;;4.78;;
64335;SDS011;50672;53.362;-6.240;2022-12-10T10:23:56;9.45;;;5.05;;
64335;SDS011;50672;53.362;-6.240;2022-12-10T10:26:26;6.70;;;3.78;;
64335;SDS011;50672;53.362;-6.240;2022-12-10T10:28:55;7.47;;;4.50;;
64335;SDS011;50672;53.362;-6.240;2022-12-10T10:31:23;7.15;;;4.53;;
64335;SDS011;50672;53.362;-6.240;2022-12-10T10:33:52;8.30;;;5.13;;
64335;SDS011;50672;53.362;-6.240;2022-12-10T10:38:49;9.20;;;4.78;;
64335;SDS011;50672;53.362;-6.240;2022-12-10T10:41:16;7.90;;;5.13;;
64335;SDS011;50672;53.362;-6.240;2022-12-10T10:43:43;10.88;;;4.70;;
64335;SDS011;50672;53.362;-6.240;2022-12-10T10:48:40;8.47;;;4.70;;
64335;SDS011;50672;53.362;-6.240;2022-12-10T10:53:43;20.13;;;7.72;;
64335;SDS011;50672;53.362;-6.240;2022-12-10T10:58:45;9.73;;;5.45;;
64335;SDS011;50672;53.362;-6.240;2022-12-10T11:01:13;9.40;;;4.45;;
64335;SDS011;50672;53.362;-6.240;2022-12-10T11:03:45;8.80;;;4.80;;
64335;SDS011;50672;53.362;-6.240;2022-12-10T11:06:12;8.77;;;5.47;;
64335;SDS011;50672;53.362;-6.240;2022-12-10T11:08:39;7.20;;;5.30;;
64335;SDS011;50672;53.362;-6.240;2022-12-10T11:11:52;11.27;;;5.68;;
64335;SDS011;50672;53.362;-6.240;2022-12-10T11:14:14;9.40;;;5.57;;
64335;SDS011;50672;53.362;-6.240;2022-12-10T11:16:41;9.07;;;5.45;;
64335;SDS011;50672;53.362;-6.240;2022-12-10T11:19:16;9.57;;;5.75;;
64335;SDS011;50672;53.362;-6.240;2022-12-10T11:21:44;12.15;;;5.68;;
64335;SDS011;50672;53.362;-6.240;2022-12-10T11:24:11;9.20;;;5.22;;
64335;SDS011;50672;53.362;-6.240;2022-12-10T11:29:58;7.82;;;5.43;;
64335;SDS011;50672;53.362;-6.240;2022-12-10T11:37:32;12.15;;;6.95;;
64335;SDS011;50672;53.362;-6.240;2022-12-10T11:45:18;11.32;;;6.50;;
64335;SDS011;50672;53.362;-6.240;2022-12-10T12:00:49;11.10;;;7.22;;
64335;SDS011;50672;53.362;-6.240;2022-12-10T12:16:23;10.55;;;6.90;;
64335;SDS011;50672;53.362;-6.240;2022-12-10T12:18:57;12.25;;;7.90;;
64335;SDS011;50672;53.362;-6.240;2022-12-10T12:21:26;11.63;;;7.82;;
64335;SDS011;50672;53.362;-6.240;2022-12-10T12:31:22;15.02;;;8.40;;
64335;SDS011;50672;53.362;-6.240;2022-12-10T12:36:22;14.93;;;8.25;;
64335;SDS011;50672;53.362;-6.240;2022-12-10T12:38:52;14.75;;;8.82;;
64335;SDS011;50672;53.362;-6.240;2022-12-10T12:41:32;13.30;;;8.55;;
64335;SDS011;50672;53.362;-6.240;2022-12-10T12:46:51;16.80;;;9.13;;
64335;SDS011;50672;53.362;-6.240;2022-12-10T12:49:37;21.85;;;9.70;;
64335;SDS011;50672;53.362;-6.240;2022-12-10T12:54:41;15.50;;;9.25;;
64335;SDS011;50672;53.362;-6.240;2022-12-10T12:57:14;16.33;;;10.40;;
64335;SDS011;50672;53.362;-6.240;2022-12-10T13:04:50;17.95;;;8.95;;
64335;SDS011;50672;53.362;-6.240;2022-12-10T13:09:45;16.08;;;10.38;;
64335;SDS011;50672;53.362;-6.240;2022-12-10T13:12:16;16.90;;;9.40;;
64335;SDS011;50672;53.362;-6.240;2022-12-10T13:19:40;16.90;;;11.30;;
64335;SDS011;50672;53.362;-6.240;2022-12-10T13:22:09;16.80;;;10.02;;
64335;SDS011;50672;53.362;-6.240;2022-12-10T13:24:43;19.33;;;10.43;;
64335;SDS011;50672;53.362;-6.240;2022-12-10T13:37:36;19.20;;;11.38;;
64335;SDS011;50672;53.362;-6.240;2022-12-10T13:42:37;19.25;;;12.05;;
64335;SDS011;50672;53.362;-6.240;2022-12-10T13:47:50;16.23;;;10.23;;
64335;SDS011;50672;53.362;-6.240;2022-12-10T13:50:20;20.98;;;12.00;;
64335;SDS011;50672;53.362;-6.240;2022-12-10T14:01:00;20.10;;;12.05;;
64335;SDS011;50672;53.362;-6.240;2022-12-10T14:03:42;19.20;;;11.52;;
64335;SDS011;50672;53.362;-6.240;2022-12-10T14:06:18;21.77;;;12.67;;
64335;SDS011;50672;53.362;-6.240;2022-12-10T14:11:22;18.42;;;11.20;;
64335;SDS011;50672;53.362;-6.240;2022-12-10T14:13:51;22.50;;;12.00;;
64335;SDS011;50672;53.362;-6.240;2022-12-10T14:16:20;20.45;;;12.48;;
64335;SDS011;50672;53.362;-6.240;2022-12-10T14:18:51;19.48;;;11.30;;
64335;SDS011;50672;53.362;-6.240;2022-12-10T14:21:19;16.93;;;11.70;;
64335;SDS011;50672;53.362;-6.240;2022-12-10T14:24:30;18.30;;;11.40;;
64335;SDS011;50672;53.362;-6.240;2022-12-10T14:27:32;18.92;;;10.55;;
64335;SDS011;50672;53.362;-6.240;2022-12-10T14:30:03;20.60;;;11.75;;
64335;SDS011;50672;53.362;-6.240;2022-12-10T14:32:33;20.10;;;11.95;;
64335;SDS011;50672;53.362;-6.240;2022-12-10T14:35:01;22.35;;;13.52;;
64335;SDS011;50672;53.362;-6.240;2022-12-10T14:37:29;19.25;;;13.15;;
64335;SDS011;50672;53.362;-6.240;2022-12-10T14:39:57;21.85;;;13.30;;
64335;SDS011;50672;53.362;-6.240;2022-12-10T14:43:04;22.90;;;13.27;;
64335;SDS011;50672;53.362;-6.240;2022-12-10T14:46:13;21.77;;;13.18;;
64335;SDS011;50672;53.362;-6.240;2022-12-10T14:49:19;16.25;;;10.25;;
64335;SDS011;50672;53.362;-6.240;2022-12-10T14:52:24;15.10;;;9.52;;
64335;SDS011;50672;53.362;-6.240;2022-12-10T14:55:29;15.35;;;8.82;;
64335;SDS011;50672;53.362;-6.240;2022-12-10T14:58:37;16.27;;;8.68;;
64335;SDS011;50672;53.362;-6.240;2022-12-10T15:02:15;18.75;;;9.65;;
64335;SDS011;50672;53.362;-6.240;2022-12-10T15:05:20;18.77;;;10.35;;
64335;SDS011;50672;53.362;-6.240;2022-12-10T15:08:06;16.50;;;9.68;;
64335;SDS011;50672;53.362;-6.240;2022-12-10T15:10:57;13.77;;;8.80;;
64335;SDS011;50672;53.362;-6.240;2022-12-10T15:14:03;13.18;;;8.20;;
64335;SDS011;50672;53.362;-6.240;2022-12-10T15:17:38;13.13;;;8.27;;
64335;SDS011;50672;53.362;-6.240;2022-12-10T15:23:36;11.77;;;7.15;;
64335;SDS011;50672;53.362;-6.240;2022-12-10T15:26:44;12.38;;;7.35;;
64335;SDS011;50672;53.362;-6.240;2022-12-10T15:29:49;14.10;;;8.15;;
64335;SDS011;50672;53.362;-6.240;2022-12-10T15:32:55;15.38;;;8.00;;
64335;SDS011;50672;53.362;-6.240;2022-12-10T15:36:01;21.77;;;12.18;;
64335;SDS011;50672;53.362;-6.240;2022-12-10T15:41:58;25.38;;;13.52;;
64335;SDS011;50672;53.362;-6.240;2022-12-10T15:45:40;24.05;;;11.77;;
64335;SDS011;50672;53.362;-6.240;2022-12-10T15:48:45;26.30;;;11.20;;
64335;SDS011;50672;53.362;-6.240;2022-12-10T17:04:03;23.77;;;10.23;;
64335;SDS011;50672;53.362;-6.240;2022-12-10T17:06:30;23.58;;;10.75;;
64335;SDS011;50672;53.362;-6.240;2022-12-10T17:08:56;20.55;;;11.43;;
64335;SDS011;50672;53.362;-6.240;2022-12-10T17:11:24;28.65;;;14.10;;
64335;SDS011;50672;53.362;-6.240;2022-12-10T17:14:13;32.25;;;14.98;;
64335;SDS011;50672;53.362;-6.240;2022-12-10T17:16:44;33.10;;;16.73;;
64335;SDS011;50672;53.362;-6.240;2022-12-10T17:19:11;25.48;;;13.90;;
64335;SDS011;50672;53.362;-6.240;2022-12-10T17:21:38;26.00;;;13.52;;
64335;SDS011;50672;53.362;-6.240;2022-12-10T17:24:05;26.55;;;13.80;;
64335;SDS011;50672;53.362;-6.240;2022-12-10T17:26:33;26.60;;;13.35;;
64335;SDS011;50672;53.362;-6.240;2022-12-10T17:29:03;23.65;;;12.88;;
64335;SDS011;50672;53.362;-6.240;2022-12-10T17:31:30;25.65;;;12.52;;
64335;SDS011;50672;53.362;-6.240;2022-12-10T17:33:57;23.13;;;11.63;;
64335;SDS011;50672;53.362;-6.240;2022-12-10T17:36:24;22.85;;;11.68;;
64335;SDS011;50672;53.362;-6.240;2022-12-10T17:38:50;24.42;;;13.38;;
64335;SDS011;50672;53.362;-6.240;2022-12-10T17:41:17;23.52;;;10.45;;
64335;SDS011;50672;53.362;-6.240;2022-12-10T17:43:44;23.17;;;11.63;;
64335;SDS011;50672;53.362;-6.240;2022-12-10T19:46:25;34.20;;;17.30;;
64335;SDS011;50672;53.362;-6.240;2022-12-10T19:48:53;34.10;;;15.02;;
64335;SDS011;50672;53.362;-6.240;2022-12-10T19:51:19;37.17;;;18.45;;
64335;SDS011;50672;53.362;-6.240;2022-12-10T19:53:49;39.38;;;18.67;;
64335;SDS011;50672;53.362;-6.240;2022-12-10T19:58:56;43.92;;;23.08;;
64335;SDS011;50672;53.362;-6.240;2022-12-10T20:01:25;50.40;;;25.35;;
64335;SDS011;50672;53.362;-6.240;2022-12-10T20:03:53;52.08;;;27.15;;
64335;SDS011;50672;53.362;-6.240;2022-12-10T20:06:22;42.17;;;22.33;;
64335;SDS011;50672;53.362;-6.240;2022-12-10T20:08:56;34.78;;;18.90;;
64335;SDS011;50672;53.362;-6.240;2022-12-10T20:11:24;35.78;;;17.27;;
64335;SDS011;50672;53.362;-6.240;2022-12-10T20:13:52;38.55;;;19.58;;
64335;SDS011;50672;53.362;-6.240;2022-12-10T20:16:21;36.88;;;16.83;;
64335;SDS011;50672;53.362;-6.240;2022-12-10T20:18:50;36.72;;;16.38;;
64335;SDS011;50672;53.362;-6.240;2022-12-10T20:21:20;31.95;;;15.63;;
64335;SDS011;50672;53.362;-6.240;2022-12-10T20:23:47;29.67;;;15.65;;
64335;SDS011;50672;53.362;-6.240;2022-12-10T20:29:01;36.75;;;17.08;;
64335;SDS011;50672;53.362;-6.240;2022-12-10T20:31:29;36.30;;;17.08;;
64335;SDS011;50672;53.362;-6.240;2022-12-10T20:33:56;35.05;;;17.92;;
64335;SDS011;50672;53.362;-6.240;2022-12-10T20:36:24;36.95;;;18.98;;
64335;SDS011;50672;53.362;-6.240;2022-12-10T20:38:53;39.20;;;18.15;;
64335;SDS011;50672;53.362;-6.240;2022-12-10T20:41:20;34.92;;;16.48;;
64335;SDS011;50672;53.362;-6.240;2022-12-10T20:43:50;30.60;;;16.30;;
64335;SDS011;50672;53.362;-6.240;2022-12-10T20:48:52;36.80;;;17.95;;
64335;SDS011;50672;53.362;-6.240;2022-12-10T20:51:19;33.97;;;17.02;;
64335;SDS011;50672;53.362;-6.240;2022-12-10T20:53:46;32.15;;;17.95;;
64335;SDS011;50672;53.362;-6.240;2022-12-10T20:56:15;31.85;;;15.80;;
64335;SDS011;50672;53.362;-6.240;2022-12-10T20:58:44;34.03;;;17.25;;
64335;SDS011;50672;53.362;-6.240;2022-12-10T21:02:10;36.13;;;16.05;;
64335;SDS011;50672;53.362;-6.240;2022-12-10T21:05:37;28.40;;;15.02;;
64335;SDS011;50672;53.362;-6.240;2022-12-10T21:09:29;42.67;;;19.88;;
64335;SDS011;50672;53.362;-6.240;2022-12-10T21:12:56;33.58;;;16.30;;